Date,TemperatureHighF,TemperatureAvgF,TemperatureLowF,DewpointHighF,DewpointAvgF,DewpointLowF,HumidityHigh,HumidityAvg,HumidityLow,PressureMaxIn,PressureMinIn,WindSpeedMaxMPH,WindSpeedAvgMPH,GustSpeedMaxMPH,PrecipitationSumIn
2013-1-1,36,32,25,28,22,12,78,64,51,30.07,29.93,12,3,0,0.06
2013-1-2,28,24,17,16,14,12,82,65,54,30.25,30.06,14,3,0,0.00
2013-1-3,33,22,7,22,14,5,97,74,51,30.25,30.08,9,2,0,0.00
2013-1-4,36,31,27,23,20,17,76,64,51,30.11,29.99,12,4,0,0.00
2013-1-5,37,30,26,23,21,18,85,69,56,30.37,30.10,11,3,0,0.00
2013-1-6,41,32,26,30,26,22,96,80,57,30.14,29.94,8,1,0,0.00
2013-1-7,42,33,20,31,26,19,99,77,50,30.35,30.08,10,2,0,0.00
2013-1-8,42,26,15,28,22,14,99,86,54,30.33,30.24,4,0,0,0.00
2013-1-9,41,27,19,31,24,19,99,89,55,30.31,30.07,8,1,0,0.00
2013-1-10,46,34,24,29,26,23,99,76,48,30.51,30.26,9,1,0,0.00
2013-1-11,41,35,30,35,31,27,99,87,67,30.38,29.93,5,2,0,0.36
2013-1-12,41,36,34,40,36,33,99,98,94,30.02,29.94,2,0,0,0.01
2013-1-13,43,39,35,43,38,35,99,99,99,29.97,29.80,3,0,0,0.03
2013-1-14,48,41,35,42,33,24,99,74,45,30.20,29.79,9,2,0,0.18
2013-1-15,36,31,24,27,24,22,94,77,61,30.25,30.05,4,1,0,0.00
2013-1-16,36,31,29,33,30,27,98,94,85,30.04,29.73,1,0,0,0.04
2013-1-17,40,33,29,31,28,23,96,83,67,29.99,29.81,5,1,0,0.20
2013-1-18,32,25,16,25,11,6,82,57,36,30.31,29.92,11,4,0,0.00
2013-1-19,55,31,16,28,19,12,87,66,27,30.15,29.59,6,2,0,0.15
2013-1-20,47,38,21,30,18,7,64,45,29,29.96,29.50,22,6,0,0.00
2013-1-21,26,22,16,21,12,2,88,66,52,29.95,29.73,14,3,0,0.00
2013-1-22,16,11,3,7,-2,-9,83,55,38,30.11,29.80,14,5,0,0.00
2013-1-23,18,8,1,2,0,-4,89,70,43,30.14,29.99,9,2,0,0.00
2013-1-24,25,13,4,5,2,-2,89,63,33,30.38,29.98,9,3,0,0.00
2013-1-25,18,10,4,10,4,0,91,79,54,30.38,29.92,4,1,0,0.00
2013-1-26,30,16,6,15,9,3,90,76,49,30.30,29.96,4,1,0,0.00
2013-1-27,34,19,6,17,11,3,92,74,44,30.43,30.30,5,1,0,0.04
2013-1-28,32,28,22,31,25,16,99,89,70,30.31,29.88,3,0,0,0.00
2013-1-29,36,34,32,36,33,32,99,98,93,29.99,29.81,6,0,0,0.64
2013-1-30,56,44,34,55,44,34,99,98,90,29.80,29.03,7,1,0,1.49
2013-1-31,54,34,22,51,23,10,97,65,46,29.65,28.97,29,6,0,0.86
2013-2-1,26,21,15,14,9,4,73,60,44,30.14,29.64,17,5,0,0.00
2013-2-2,23,17,12,17,10,3,88,71,56,30.16,29.81,9,3,0,0.00
2013-2-3,34,23,16,22,16,9,90,77,60,29.83,29.55,10,2,0,0.00
2013-2-4,28,22,14,19,12,7,85,64,50,29.88,29.77,11,2,0,0.00
2013-2-5,34,27,22,25,22,19,94,82,62,29.80,29.71,3,0,0,0.00
2013-2-6,38,27,19,27,19,13,95,74,39,30.24,29.79,10,2,0,0.08
2013-2-7,36,25,14,22,16,11,89,68,52,30.33,30.07,8,2,0,0.00
2013-2-8,35,31,24,32,26,15,96,82,59,30.07,29.64,11,2,0,0.02
2013-2-9,33,24,16,19,14,11,87,66,49,30.28,29.85,10,4,0,0.00
2013-2-10,38,24,9,22,15,6,90,69,47,30.35,30.02,6,2,0,0.05
2013-2-11,42,36,32,35,29,18,94,78,51,30.02,29.52,7,2,0,0.02
2013-2-12,38,35,24,25,23,20,85,62,55,29.85,29.64,16,5,0,0.00
2013-2-13,41,30,20,30,24,18,94,80,54,29.83,29.54,7,1,0,0.00
2013-2-14,41,33,25,30,27,23,96,80,60,29.85,29.63,7,1,0,0.03
2013-2-15,47,37,30,31,26,22,92,67,43,29.87,29.76,12,3,0,0.01
2013-2-16,36,30,25,21,15,8,77,55,33,29.88,29.74,6,2,0,0.00
2013-2-17,28,21,16,16,8,2,82,58,36,30.03,29.72,14,5,0,0.00
2013-2-18,38,24,11,16,10,5,75,55,30,30.19,29.93,12,2,0,0.00
2013-2-19,36,29,23,32,22,14,90,74,57,29.94,29.52,14,2,0,0.00
2013-2-20,27,23,20,17,12,9,76,61,50,29.97,29.68,14,5,0,0.00
2013-2-21,37,26,20,16,14,12,73,61,42,30.24,29.94,11,4,0,0.00
2013-2-22,32,27,19,23,18,14,80,70,58,30.27,30.04,5,2,0,0.00
2013-2-23,38,34,31,32,29,23,93,83,72,30.04,29.74,6,1,0,0.09
2013-2-24,36,32,26,31,24,18,93,71,50,29.96,29.71,16,3,0,0.01
2013-2-25,47,31,19,26,20,16,88,67,40,30.09,29.96,7,1,0,0.00
2013-2-26,41,32,21,31,26,19,93,78,55,30.10,29.65,13,3,0,0.15
2013-2-27,41,35,32,36,33,31,96,92,83,29.65,29.45,4,1,0,1.60
2013-2-28,41,35,31,33,30,29,96,83,63,29.56,29.45,9,2,0,0.03
2013-3-1,40,35,30,30,25,20,88,68,53,29.72,29.55,9,3,0,0.00
2013-3-2,36,31,26,21,20,17,71,64,52,29.74,29.59,7,3,0,0.00
2013-3-3,34,28,23,20,18,14,79,64,53,29.75,29.64,10,4,0,0.00
2013-3-4,34,28,24,21,18,14,70,65,57,29.91,29.75,18,5,0,0.00
2013-3-5,43,31,26,27,22,19,82,68,48,29.96,29.75,6,2,0,0.00
2013-3-6,44,38,29,30,27,22,74,65,54,29.94,29.70,12,3,0,0.00
2013-3-7,45,37,27,27,24,22,81,60,44,30.07,29.93,10,3,0,0.00
2013-3-8,47,36,28,26,23,20,72,58,41,30.22,30.05,15,5,0,0.00
2013-3-9,62,38,22,29,24,19,90,62,26,30.27,30.09,6,1,0,0.00
2013-3-10,64,45,26,31,25,22,86,53,24,30.17,29.94,7,2,0,0.00
2013-3-11,55,49,42,45,34,20,77,58,30,30.00,29.69,10,4,0,0.01
2013-3-12,54,47,39,48,39,27,92,74,58,29.79,29.60,10,3,0,0.86
2013-3-13,46,35,26,28,23,15,88,63,40,29.86,29.69,16,4,0,0.00
2013-3-14,40,31,27,19,14,10,71,49,32,29.94,29.84,16,7,0,0.00
2013-3-15,45,34,20,30,23,14,83,65,54,29.94,29.61,11,3,0,0.00
2013-3-16,36,31,27,28,25,22,90,79,67,29.79,29.58,4,0,0,0.00
2013-3-17,39,31,24,27,21,17,91,67,44,30.15,29.78,7,1,0,0.20
2013-3-18,30,26,19,27,20,15,90,79,57,30.20,29.76,8,2,0,0.00
2013-3-19,48,35,29,34,27,17,93,73,43,29.76,29.55,15,3,0,0.75
2013-3-20,41,33,28,25,18,15,73,55,37,29.78,29.64,11,4,0,0.00
2013-3-21,34,26,17,18,13,8,78,58,38,29.73,29.60,14,3,0,0.00
2013-3-22,39,30,23,21,19,16,79,63,46,29.83,29.66,12,5,0,0.00
2013-3-23,43,33,24,22,20,17,78,58,42,29.88,29.79,12,4,0,0.00
2013-3-24,45,35,26,24,21,19,74,57,37,29.87,29.52,7,2,0,0.00
2013-3-25,37,35,32,32,28,22,91,77,57,29.55,29.41,5,1,0,0.25
2013-3-26,50,38,30,32,28,23,92,68,38,29.81,29.56,8,2,0,0.03
2013-3-27,48,38,27,30,27,24,89,65,42,29.93,29.81,12,4,0,0.00
2013-3-28,47,39,32,30,27,24,87,62,44,30.07,29.89,11,2,0,0.00
2013-3-29,52,41,30,33,28,24,81,61,35,30.09,29.98,12,2,0,0.00
2013-3-30,61,40,25,28,23,18,88,58,21,30.10,29.90,7,2,0,0.00
2013-3-31,48,38,28,40,32,21,93,79,56,29.95,29.55,3,0,0,0.69
2013-4-1,48,41,26,41,27,11,94,63,25,29.80,29.51,14,4,0,0.09
2013-4-2,42,32,24,19,14,9,71,48,30,29.99,29.80,14,5,0,0.00
2013-4-3,44,31,20,18,14,8,83,51,27,30.25,29.98,16,4,0,0.00
2013-4-4,55,36,19,22,16,12,79,49,19,30.26,29.90,7,2,0,0.00
2013-4-5,60,49,34,27,20,13,59,34,20,29.95,29.68,14,5,0,0.00
2013-4-6,55,40,27,24,17,12,72,44,19,30.20,29.96,7,3,0,0.00
2013-4-7,70,55,42,44,32,19,63,41,34,30.02,29.68,9,4,0,0.00
2013-4-8,75,58,38,50,42,35,88,58,28,29.94,29.69,6,2,0,0.00
2013-4-9,82,70,55,52,47,41,76,47,27,29.86,29.64,12,3,0,0.00
2013-4-10,82,67,56,60,53,47,72,61,47,29.76,29.60,9,3,0,0.00
2013-4-11,46,45,44,39,39,39,82,80,78,29.77,29.75,4,2,0,0.00
2013-4-12,49,47,44,45,43,37,94,89,67,29.65,29.49,10,3,0,0.86
2013-4-13,50,44,37,38,35,32,93,70,51,29.78,29.65,11,2,0,0.00
2013-4-14,58,48,38,37,32,26,79,54,38,29.99,29.82,14,3,0,0.00
2013-4-15,67,54,40,46,41,32,82,62,48,30.08,29.98,9,3,0,0.00
2013-4-16,70,61,54,58,51,45,90,70,62,30.05,29.87,12,4,0,0.25
2013-4-17,72,57,46,57,40,34,92,55,26,30.12,29.97,9,3,0,0.01
2013-4-18,64,56,43,56,46,35,84,70,51,30.06,29.76,6,2,0,0.00
2013-4-19,73,63,48,60,52,36,82,68,59,29.76,29.27,16,6,0,0.57
2013-4-20,53,44,34,36,27,20,65,51,39,30.24,29.60,21,5,0,0.00
2013-4-21,58,40,25,28,23,19,83,55,27,30.48,30.25,8,2,0,0.00
2013-4-22,61,45,30,32,27,24,81,52,27,30.45,30.22,9,3,0,0.00
2013-4-23,65,49,40,40,35,28,78,59,38,30.27,29.91,7,2,0,0.00
2013-4-24,72,52,36,56,43,32,92,73,47,29.91,29.51,20,3,0,0.55
2013-4-25,66,50,37,36,30,22,72,50,23,30.14,29.90,10,4,0,0.00
2013-4-26,69,50,35,36,30,23,89,51,18,30.31,30.15,8,2,0,0.00
2013-4-27,77,52,32,39,32,26,81,51,22,30.31,30.04,7,2,0,0.00
2013-4-28,68,53,37,46,39,33,85,62,33,30.10,29.93,14,3,0,0.06
2013-4-29,57,54,50,52,46,39,89,75,58,29.95,29.89,6,2,0,0.00
2013-4-30,64,57,48,52,50,46,92,79,61,30.12,29.94,4,1,0,0.00
2013-5-1,78,58,40,46,36,25,95,55,18,30.26,30.12,6,2,0,0.00
2013-5-2,81,58,38,44,39,35,88,54,23,30.29,30.09,6,2,0,0.00
2013-5-3,74,59,42,46,41,36,87,54,32,30.22,30.05,8,2,0,0.00
2013-5-4,80,57,38,46,40,34,86,56,28,30.16,29.93,7,2,0,0.00
2013-5-5,78,58,40,45,36,26,92,52,16,30.08,29.89,8,2,0,0.00
2013-5-6,76,58,38,53,44,35,91,63,42,30.04,29.86,8,2,0,0.00
2013-5-7,78,64,49,54,50,46,93,65,37,29.94,29.78,9,2,0,0.00
2013-5-8,61,58,55,58,55,51,95,89,70,29.85,29.75,4,1,0,2.44
2013-5-9,68,59,53,60,55,52,95,87,64,29.81,29.71,5,1,0,0.54
2013-5-10,71,60,53,62,56,52,95,89,70,29.85,29.63,6,1,0,1.12
2013-5-11,68,62,53,61,55,44,95,79,55,29.63,29.52,9,2,0,0.46
2013-5-12,56,49,36,47,35,27,93,62,36,29.82,29.56,14,4,0,0.02
2013-5-13,52,42,32,32,27,24,88,57,36,30.01,29.82,9,3,0,0.00
2013-5-14,65,46,28,40,29,21,91,58,23,30.06,29.84,11,2,0,0.00
2013-5-15,87,62,46,60,47,39,79,61,38,29.85,29.41,14,2,0,0.00
2013-5-16,84,68,52,55,46,37,89,52,19,29.75,29.55,8,2,0,0.00
2013-5-17,80,61,45,51,43,38,79,54,30,30.04,29.75,8,2,0,0.00
2013-5-18,67,60,51,54,48,43,77,66,54,30.07,29.98,5,1,0,0.00
2013-5-19,64,60,57,58,55,52,89,82,74,30.04,29.92,5,1,0,0.00
2013-5-20,84,68,60,66,60,57,91,77,48,29.93,29.71,5,1,0,0.00
2013-5-21,91,82,62,69,65,60,93,58,41,29.77,29.55,6,2,0,0.00
2013-5-22,91,68,64,65,62,60,91,83,42,29.68,29.50,12,1,0,0.91
2013-5-23,79,73,62,64,62,59,94,68,54,29.64,29.49,5,2,0,0.28
2013-5-24,56,48,43,52,38,34,87,69,52,29.99,29.57,15,5,0,0.08
2013-5-25,63,51,39,37,34,32,88,56,32,30.01,29.89,14,4,0,0.00
2013-5-26,71,53,35,40,35,32,93,58,24,30.07,29.91,14,3,0,0.00
2013-5-27,75,55,36,47,40,33,91,61,30,30.15,29.92,6,2,0,0.00
2013-5-28,60,55,51,56,51,44,91,85,76,30.00,29.88,4,1,0,0.58
2013-5-29,91,70,58,67,61,56,94,75,41,29.91,29.75,6,1,0,0.55
2013-5-30,93,74,59,71,62,57,93,70,38,29.98,29.83,7,1,0,0.00
2013-5-31,95,76,61,70,64,59,92,70,40,29.96,29.71,6,1,0,0.00
2013-6-1,90,75,61,69,64,58,91,70,46,29.81,29.59,10,1,0,0.00
2013-6-2,86,74,65,68,63,58,91,71,40,29.61,29.51,13,2,0,0.01
2013-6-3,81,67,57,60,52,40,90,61,29,29.79,29.61,7,2,0,0.00
2013-6-4,82,60,44,53,43,38,85,56,26,29.96,29.80,9,2,0,0.00
2013-6-5,82,62,45,54,47,41,87,61,36,30.06,29.82,6,1,0,0.00
2013-6-6,65,61,58,57,53,47,91,75,54,29.85,29.68,5,1,0,0.51
2013-6-7,67,63,59,61,59,57,93,89,79,29.68,29.52,3,0,0,0.39
2013-6-8,80,66,54,60,56,51,91,72,43,29.92,29.56,8,2,0,0.00
2013-6-9,82,66,52,64,55,50,92,72,43,30.04,29.87,5,1,0,0.00
2013-6-10,69,64,60,65,61,57,92,89,85,29.93,29.56,5,1,0,1.00
2013-6-11,76,66,61,65,59,-100,94,79,59,29.63,29.53,12,-8,0,0.12
2013-6-12,84,69,57,63,57,53,93,70,42,29.71,29.57,8,1,0,0.00
2013-6-13,73,64,58,65,60,53,93,85,73,29.59,29.23,11,2,0,1.16
2013-6-14,81,66,57,62,54,52,89,68,44,29.78,29.49,10,2,0,0.00
2013-6-15,82,65,52,58,53,50,92,69,39,29.88,29.73,9,2,0,0.00
2013-6-16,85,66,56,65,58,52,89,76,52,29.82,29.57,6,1,0,0.00
2013-6-17,86,71,59,64,59,55,92,70,38,29.74,29.64,9,2,0,0.00
2013-6-18,79,67,58,64,57,48,91,72,56,29.76,29.62,5,2,0,0.00
2013-6-19,81,64,51,58,48,45,84,59,31,29.98,29.77,7,2,0,0.00
2013-6-20,85,65,47,65,54,45,91,71,43,30.09,29.96,7,1,0,0.00
2013-6-21,88,70,57,70,61,55,91,75,46,30.09,29.96,6,1,0,0.00
2013-6-22,90,73,60,72,63,58,91,74,53,30.03,29.82,7,1,0,0.00
2013-6-23,93,77,64,73,66,61,91,72,47,29.96,29.75,8,1,0,0.00
2013-6-24,94,78,65,71,66,62,90,68,37,29.89,29.71,7,1,0,0.00
2013-6-25,87,74,64,74,66,61,91,78,56,29.78,29.60,10,2,0,0.13
2013-6-26,85,70,65,68,64,62,91,81,55,29.68,29.59,5,1,0,0.04
2013-6-27,78,70,64,70,65,61,91,85,69,29.62,29.37,6,1,0,1.00
2013-6-28,80,69,63,70,64,59,92,83,64,29.38,29.23,7,1,0,0.43
2013-6-29,85,70,60,67,61,58,92,76,50,29.48,29.31,7,2,0,0.00
2013-6-30,90,73,62,71,64,60,91,76,52,29.70,29.49,9,2,0,1.91
2013-7-1,76,69,65,70,66,63,92,88,76,29.76,29.64,7,2,0,0.60
2013-7-2,88,76,68,74,69,66,93,82,62,29.90,29.77,6,2,0,0.77
2013-7-3,93,78,68,75,69,66,93,77,51,29.99,29.90,7,1,0,0.00
2013-7-4,100,82,68,74,70,66,92,70,43,30.00,29.87,8,2,0,0.03
2013-7-5,100,80,68,77,70,66,93,76,38,29.98,29.83,10,2,0,0.26
2013-7-6,102,82,69,75,70,66,92,73,39,29.97,29.78,6,2,0,0.27
2013-7-7,91,77,70,74,69,67,90,79,48,29.86,29.70,5,1,0,0.06
2013-7-8,83,72,68,72,67,65,91,85,67,29.87,29.79,7,1,0,0.25
2013-7-9,83,72,67,74,68,64,92,85,70,29.89,29.76,4,0,0,0.36
2013-7-10,87,75,68,75,69,64,92,83,66,29.77,29.58,6,1,0,0.20
2013-7-11,85,72,63,67,63,58,91,75,46,29.77,29.62,5,1,0,0.00
2013-7-12,80,69,61,68,62,57,89,79,63,29.92,29.77,5,1,0,0.00
2013-7-13,85,71,65,75,66,62,91,86,66,30.06,29.90,7,1,0,0.05
2013-7-14,96,78,67,75,69,64,91,76,47,30.15,30.00,6,1,0,0.00
2013-7-15,97,79,68,79,71,65,91,78,50,30.11,29.95,5,1,0,0.00
2013-7-16,100,82,71,78,71,68,90,72,42,30.08,29.92,6,1,0,0.00
2013-7-17,98,82,70,79,72,66,90,75,52,30.05,29.84,5,1,0,0.00
2013-7-18,99,80,69,80,72,66,90,78,47,29.91,29.75,4,1,0,0.52
2013-7-19,97,81,68,78,70,66,91,74,43,29.81,29.54,7,2,0,0.00
2013-7-20,89,79,71,73,70,66,87,74,48,29.64,29.54,7,2,0,0.00
2013-7-21,92,76,66,71,66,61,90,72,36,29.75,29.65,4,1,0,0.00
2013-7-22,89,74,66,74,68,62,90,81,59,29.74,29.55,4,1,0,0.07
2013-7-23,91,76,67,72,67,62,91,77,44,29.54,29.38,7,1,0,0.01
2013-7-24,81,68,57,62,57,53,89,69,43,29.82,29.47,7,2,0,0.00
2013-7-25,84,64,50,60,54,47,88,72,41,29.89,29.80,5,1,0,0.00
2013-7-26,90,68,51,65,56,48,90,69,38,29.94,29.77,4,1,0,0.00
2013-7-27,78,67,56,70,62,53,90,84,69,29.84,29.67,2,0,0,0.01
2013-7-28,86,72,61,67,62,57,92,76,40,29.79,29.64,5,1,0,0.22
2013-7-29,81,66,56,61,56,53,91,71,41,29.95,29.80,5,1,0,0.00
2013-7-30,85,67,53,64,57,50,91,73,49,30.04,29.92,4,1,0,0.00
2013-7-31,87,68,57,68,60,54,91,76,40,29.99,29.77,6,1,0,0.00
2013-8-1,86,71,64,71,64,60,89,80,58,29.77,29.57,4,1,0,0.00
2013-8-2,82,68,56,66,58,54,91,74,45,29.75,29.66,6,2,0,0.00
2013-8-3,86,69,59,67,60,55,91,74,39,29.73,29.62,6,1,0,0.07
2013-8-4,81,65,53,59,54,50,90,71,44,29.85,29.73,6,1,0,0.00
2013-8-5,80,63,51,60,53,48,91,72,39,29.95,29.81,7,1,0,0.00
2013-8-6,81,66,52,64,57,49,91,75,50,29.89,29.82,5,1,0,0.00
2013-8-7,73,68,65,67,64,61,91,85,79,29.87,29.75,5,1,0,0.02
2013-8-8,88,72,63,75,67,60,92,83,62,29.84,29.68,4,1,0,0.00
2013-8-9,86,75,66,75,70,63,92,85,68,29.74,29.60,3,0,0,0.00
2013-8-10,86,71,60,66,60,55,92,71,37,29.88,29.74,11,2,0,0.00
2013-8-11,88,67,59,68,59,54,89,76,43,29.96,29.79,5,1,0,0.00
2013-8-12,86,68,57,67,61,54,91,79,46,29.87,29.70,6,1,0,0.01
2013-8-13,85,70,62,68,60,47,92,73,45,29.70,29.50,8,2,0,0.00
2013-8-14,78,61,48,54,49,44,88,67,39,29.91,29.67,7,2,0,0.00
2013-8-15,79,60,46,59,50,44,92,73,37,30.01,29.87,4,0,0,0.00
2013-8-16,85,64,50,61,53,47,93,71,32,30.02,29.92,6,1,0,0.00
2013-8-17,83,65,52,63,54,49,92,72,35,30.13,30.00,5,1,0,0.00
2013-8-18,78,65,57,64,58,54,89,79,56,30.10,29.94,4,0,0,0.00
2013-8-19,85,68,60,69,61,57,91,81,51,29.98,29.81,4,0,0,0.00
2013-8-20,93,72,61,65,61,59,93,72,34,29.98,29.86,6,1,0,0.00
2013-8-21,91,72,58,70,62,56,93,73,39,30.03,29.82,5,1,0,0.00
2013-8-22,90,74,64,69,65,61,92,76,47,29.85,29.65,7,1,0,0.23
2013-8-23,88,72,60,65,60,53,93,70,31,29.97,29.76,8,2,0,0.01
2013-8-24,89,66,52,59,54,50,93,70,30,30.14,29.97,6,1,0,0.00
2013-8-25,90,67,52,64,56,49,93,72,33,30.24,29.97,7,1,0,0.00
2013-8-26,92,73,60,69,63,57,91,74,41,30.01,29.71,9,1,0,0.00
2013-8-27,93,76,65,74,67,63,93,77,46,29.76,29.62,5,1,0,0.00
2013-8-28,84,73,69,74,69,66,92,88,71,29.68,29.60,5,0,0,0.00
2013-8-29,95,77,67,70,67,63,93,75,40,29.81,29.69,5,1,0,0.00
2013-8-30,94,74,63,72,66,61,94,77,44,29.81,29.56,8,1,0,0.00
2013-8-31,92,76,66,74,68,63,92,79,51,29.63,29.48,9,1,0,0.01
2013-9-1,89,76,68,73,69,66,93,81,56,29.63,29.51,5,1,0,0.00
2013-9-2,92,75,68,72,67,60,94,79,46,29.58,29.43,8,1,0,0.00
2013-9-3,75,67,60,63,58,53,94,74,50,29.77,29.55,9,2,0,0.00
2013-9-4,87,67,53,59,56,51,95,72,36,29.87,29.74,9,2,0,0.00
2013-9-5,82,67,54,60,51,42,92,62,26,30.02,29.78,7,2,0,0.00
2013-9-6,81,57,43,47,43,40,92,65,26,30.13,29.94,6,2,0,0.00
2013-9-7,86,63,45,60,49,43,94,67,27,29.97,29.68,5,1,0,0.02
2013-9-8,82,65,51,64,56,47,94,76,35,29.93,29.69,8,1,0,0.00
2013-9-9,77,59,43,60,50,42,94,75,43,30.05,29.89,6,1,0,0.06
2013-9-10,99,73,58,76,66,56,95,80,46,29.96,29.77,6,1,0,0.01
2013-9-11,92,74,69,78,70,67,95,88,57,29.92,29.79,8,1,0,0.19
2013-9-12,84,72,63,74,68,61,95,89,66,29.77,29.52,14,1,0,0.42
2013-9-13,71,62,54,60,53,46,95,76,46,29.79,29.54,8,2,0,0.00
2013-9-14,75,56,45,49,46,43,93,74,38,29.99,29.79,5,1,0,0.00
2013-9-15,74,55,43,56,48,42,95,80,46,30.08,29.86,5,1,0,0.00
2013-9-16,78,60,50,56,52,41,94,76,41,30.16,29.87,8,2,0,0.00
2013-9-17,78,52,37,45,40,35,95,70,26,30.31,30.12,7,1,0,0.00
2013-9-18,85,55,40,49,44,38,95,73,26,30.19,29.95,9,1,0,0.00
2013-9-19,86,62,43,59,52,41,95,75,40,30.02,29.83,7,1,0,0.00
2013-9-20,89,64,52,62,56,51,95,79,39,29.91,29.68,6,1,0,0.00
2013-9-21,66,62,58,62,59,56,95,91,85,29.72,29.44,7,1,0,0.46
2013-9-22,65,57,50,57,49,42,96,75,49,29.82,29.54,6,1,0,0.00
2013-9-23,76,54,45,47,44,41,93,70,34,29.94,29.83,7,2,0,0.00
2013-9-24,84,54,40,50,44,39,95,74,26,29.98,29.74,6,2,0,0.00
2013-9-25,84,56,43,54,47,42,96,78,29,29.85,29.69,6,1,0,0.00
2013-9-26,83,58,45,55,50,44,96,77,36,29.93,29.80,7,2,0,0.00
2013-9-27,86,61,50,56,51,48,93,75,34,30.07,29.93,4,1,0,0.00
2013-9-28,78,57,48,57,50,47,95,80,42,30.17,30.03,5,1,0,0.00
2013-9-29,82,57,46,54,49,45,95,77,35,30.06,29.84,8,1,0,0.00
2013-9-30,86,59,46,58,51,45,95,78,36,29.93,29.73,5,1,0,0.00
2013-10-1,86,65,54,60,55,52,94,74,35,29.89,29.74,7,1,0,0.00
2013-10-2,88,64,51,65,57,49,95,81,45,29.89,29.75,12,1,0,0.00
2013-10-3,82,66,54,64,59,52,95,81,53,29.98,29.79,4,1,0,0.00
2013-10-4,89,70,62,69,64,60,94,84,46,29.89,29.76,5,0,0,0.18
2013-10-5,85,71,64,71,66,62,95,85,57,29.91,29.75,4,1,0,0.09
2013-10-6,88,73,64,71,66,63,96,82,50,29.80,29.63,7,2,0,0.00
2013-10-7,73,63,48,67,56,43,93,79,46,29.86,29.48,10,3,0,0.99
2013-10-8,76,53,42,48,44,40,97,75,28,30.18,29.87,8,1,0,0.00
2013-10-9,68,51,40,46,41,37,96,74,31,30.26,30.10,7,1,0,0.00
2013-10-10,66,51,41,52,45,37,95,82,34,30.14,29.97,5,1,0,0.01
2013-10-11,63,54,50,58,52,48,96,91,72,29.97,29.88,6,1,0,0.84
2013-10-12,85,57,46,52,47,41,95,76,24,30.06,29.93,5,1,0,0.00
2013-10-13,68,58,50,55,52,47,93,80,55,30.16,30.06,4,1,0,0.00
2013-10-14,64,56,51,56,53,49,94,88,75,30.18,30.07,4,0,0,0.00
2013-10-15,78,61,53,58,54,50,95,80,46,30.09,29.87,6,1,0,0.00
2013-10-16,63,56,52,58,53,48,95,88,81,29.88,29.69,4,0,0,0.00
2013-10-17,70,60,53,60,55,51,95,83,58,29.74,29.42,8,1,0,0.23
2013-10-18,67,53,42,50,44,39,94,74,37,29.82,29.59,10,2,0,0.00
2013-10-19,56,47,38,50,44,37,97,90,71,29.83,29.54,5,1,0,0.04
2013-10-20,65,49,40,42,39,36,93,70,37,29.89,29.66,7,2,0,0.00
2013-10-21,71,49,35,45,38,34,97,72,32,29.98,29.71,9,1,0,0.00
2013-10-22,62,50,39,47,38,29,94,68,30,29.71,29.62,9,2,0,0.00
2013-10-23,48,42,37,39,35,32,90,77,57,29.69,29.53,6,1,0,0.00
2013-10-24,48,40,32,35,32,28,94,76,50,29.88,29.69,14,3,0,0.00
2013-10-25,53,41,32,38,33,29,94,75,44,30.08,29.89,10,2,0,0.00
2013-10-26,56,41,27,31,28,26,97,65,33,30.08,29.72,12,3,0,0.00
2013-10-27,50,44,34,36,32,30,88,64,47,29.98,29.72,9,2,0,0.00
2013-10-28,69,43,27,38,33,26,97,73,32,30.17,29.97,6,1,0,0.00
2013-10-29,59,43,33,38,35,31,94,74,44,30.29,30.15,5,0,0,0.00
2013-10-30,73,46,31,44,37,30,96,75,33,30.17,29.93,4,1,0,0.00
2013-10-31,60,54,46,58,52,42,97,92,86,30.00,29.46,6,1,0,0.09
2013-11-1,72,60,45,61,50,41,94,73,38,29.52,29.21,16,3,0,0.26
2013-11-2,59,46,39,47,42,38,96,84,57,29.72,29.49,7,1,0,0.00
2013-11-3,54,40,27,40,28,20,85,65,32,30.37,29.72,9,2,0,0.00
2013-11-4,45,33,22,26,21,16,93,66,33,30.53,30.38,6,1,0,0.00
2013-11-5,54,42,34,39,32,23,89,67,50,30.47,30.28,5,1,0,0.00
2013-11-6,68,53,41,50,46,38,91,77,53,30.27,29.75,8,2,0,0.00
2013-11-7,60,50,38,52,42,26,95,75,55,29.87,29.66,10,2,0,0.10
2013-11-8,49,40,35,34,30,25,81,68,51,30.10,29.87,14,2,0,0.00
2013-11-9,51,39,28,34,30,26,94,72,45,30.15,29.75,6,1,0,0.00
2013-11-10,50,43,34,38,32,28,91,67,50,30.01,29.70,12,4,0,0.00
2013-11-11,49,42,29,38,31,26,94,67,40,30.09,29.80,10,2,0,0.00
2013-11-12,43,32,27,38,22,14,94,70,33,30.22,29.86,9,2,0,0.01
2013-11-13,44,30,23,24,19,13,80,62,41,30.31,30.13,7,2,0,0.00
2013-11-14,56,37,27,22,19,11,78,53,16,30.12,29.99,8,2,0,0.00
2013-11-15,62,36,23,32,26,21,91,69,26,30.11,29.97,5,0,0,0.00
2013-11-16,65,45,30,44,36,28,93,73,44,30.17,30.00,5,1,0,0.00
2013-11-17,58,52,49,55,50,45,96,92,85,30.01,29.37,8,2,0,0.48
2013-11-18,62,52,40,56,37,27,95,58,28,29.76,29.36,17,4,0,0.17
2013-11-19,46,37,25,30,24,21,91,62,42,30.29,29.77,10,4,0,0.00
2013-11-20,50,31,21,25,20,14,95,69,27,30.43,30.29,6,1,0,0.00
2013-11-21,45,35,23,36,27,16,88,73,51,30.44,30.19,4,0,0,0.00
2013-11-22,46,41,39,43,39,32,98,93,68,30.19,29.82,9,0,0,0.00
2013-11-23,42,33,22,32,22,6,83,64,42,30.03,29.82,12,4,0,0.00
2013-11-24,30,21,17,13,5,1,81,50,30,30.29,30.01,12,4,0,0.00
2013-11-25,35,25,14,15,12,9,91,60,39,30.34,30.09,7,2,0,0.00
2013-11-26,33,30,28,31,28,12,97,91,41,30.12,29.57,8,1,0,0.70
2013-11-27,36,32,25,33,28,17,98,87,66,29.75,29.41,9,2,0,0.98
2013-11-28,32,27,24,22,20,16,87,75,60,30.29,29.77,8,2,0,0.00
2013-11-29,36,25,17,24,20,15,94,83,54,30.60,30.29,7,1,0,0.00
2013-11-30,34,22,12,21,16,10,93,79,57,30.60,30.21,7,1,0,0.00
2013-12-1,30,29,21,27,24,19,92,84,77,30.09,29.88,4,0,0,0.00
2013-12-2,42,32,28,33,29,26,95,87,68,29.88,29.70,4,0,0,0.02
2013-12-3,44,35,31,39,33,30,97,93,78,29.87,29.74,4,0,0,0.00
2013-12-4,49,36,30,41,34,30,97,92,72,29.97,29.85,5,1,0,0.00
2013-12-5,52,46,37,50,45,36,99,95,89,29.90,29.75,4,0,0,0.13
2013-12-6,49,39,31,48,36,30,98,92,71,30.06,29.77,6,1,0,0.17
2013-12-7,40,30,22,30,24,16,97,78,47,30.38,30.06,7,1,0,0.00
2013-12-8,28,23,17,25,19,15,94,85,66,30.44,30.15,5,1,0,0.00
2013-12-9,38,31,26,35,30,25,96,93,78,30.13,29.82,6,1,0,0.10
2013-12-10,35,28,20,28,20,10,90,72,44,30.01,29.80,11,2,0,0.00
2013-12-11,32,24,19,19,14,10,90,67,41,30.18,30.01,13,2,0,0.00
2013-12-12,30,21,16,16,6,3,92,55,33,30.26,30.01,14,4,0,0.00
2013-12-13,34,28,19,21,15,9,78,57,47,30.18,30.01,9,2,0,0.00
2013-12-14,27,24,22,25,20,16,94,85,72,30.25,29.88,5,1,0,0.00
2013-12-15,34,28,25,30,24,14,95,84,63,29.76,29.48,6,0,0,0.00
2013-12-16,32,18,8,15,9,5,91,68,40,30.05,29.77,7,2,0,0.00
2013-12-17,26,19,10,22,16,7,93,90,85,30.04,29.83,4,1,0,0.00
2013-12-18,36,25,16,23,19,14,94,79,56,30.02,29.86,9,2,0,0.00
2013-12-19,44,26,13,26,20,12,94,80,47,29.99,29.86,4,1,0,0.06
2013-12-20,37,32,27,34,30,24,96,91,84,29.94,29.75,4,0,0,0.09
2013-12-21,42,39,38,42,39,37,99,98,93,29.76,29.66,4,1,0,0.83
2013-12-22,63,52,38,58,49,38,99,89,76,29.77,29.51,7,2,0,0.08
2013-12-23,50,43,33,48,38,22,96,83,61,30.09,29.75,8,1,0,0.00
2013-12-24,34,28,19,25,18,9,82,67,57,30.30,30.02,12,2,0,0.00
2013-12-25,28,20,12,15,10,7,83,65,50,30.40,30.18,5,1,0,0.00
2013-12-26,36,29,23,30,23,14,89,78,60,30.17,29.97,7,2,0,0.00
2013-12-27,36,28,21,26,22,17,91,79,62,30.20,30.07,7,0,0,0.00
2013-12-28,55,34,21,33,26,19,93,77,39,30.10,29.91,8,2,0,0.00
2013-12-29,35,33,30,34,31,27,96,93,89,29.90,29.44,9,1,0,0.93
2013-12-30,37,30,22,35,21,11,97,72,56,30.03,29.60,11,3,0,0.00
2013-12-31,30,23,19,22,14,8,86,68,52,30.13,29.87,13,3,0,0.00
2014-1-1,28,22,17,23,18,12,92,84,67,30.22,30.03,4,0,0,0.00
2014-1-2,24,20,11,20,17,8,93,88,82,30.02,29.65,11,3,0,0.00